Ivesdale, Illinois
Current Conditions -  °F | °C
As of 2:53 PM on Thursday 20 Nov 2014 (Local Time) from KCMI Reporting Station
Clear Clear  
Wind Chill: 22°   Ceiling: Unl
Heat Index: 33°   Visibility: 10mi
Dew Point: 12°   Wind: 17mph
Humidity: 42%   Direction: 280°W
Pressure: 30.15"   Gusts: NA
Location:  39.94°N, 88.46°W
Report Text: KCMI 202053Z 28015KT 10SM CLR 01/M11 A3015 RMK AO2 SLP220 T00061111 55004 $
Loading
Personal Weather Stations






























Interactive Weather Map New forecast layout! Learn more

10-Day Weather Forecast

Advertisements
Track Severe Weather on mobile